Time;durP1;ratioP1;P1;durP2;ratioP2;P2;SDS_P1;SDS_P2;PMS_P1;PMS_P2;Temp;Humidity;BMP_temperature;BMP_pressure;BME280_temperature;BME280_humidity;BME280_pressure;Samples;Min_cycle;Max_cycle;Signal;HPM_P1;HPM_P2
2021/06/28 00:00:19;;;;;;;0.10;0.10;;;;;;;22.21;67.58;101550.06;5049917;28;20021;-84
2021/06/28 00:02:49;;;;;;;0.65;0.55;;;;;;;22.14;67.61;101545.97;5036291;28;20037;-84
2021/06/28 00:05:17;;;;;;;0.10;0.10;;;;;;;22.23;67.38;101539.16;5030624;28;20033;-85
2021/06/28 00:07:44;;;;;;;0.63;0.63;;;;;;;22.19;67.75;101537.63;5038470;28;20128;-84
2021/06/28 00:10:13;;;;;;;0.43;0.43;;;;;;;22.19;67.52;101537.63;5050068;28;20033;-84
2021/06/28 00:12:41;;;;;;;0.60;0.60;;;;;;;22.21;67.50;101541.97;5044213;28;20468;-84
2021/06/28 00:15:12;;;;;;;0.00;0.00;;;;;;;22.24;67.76;101538.22;5041394;28;20036;-85
2021/06/28 00:17:38;;;;;;;0.15;0.15;;;;;;;22.14;68.53;101533.34;5051383;28;20025;-86
2021/06/28 00:20:07;;;;;;;0.30;0.30;;;;;;;22.19;67.86;101527.66;5040875;28;20033;-84
2021/06/28 00:22:33;;;;;;;2.08;0.45;;;;;;;22.21;67.60;101525.75;5046779;28;20072;-85
2021/06/28 00:25:00;;;;;;;0.10;0.10;;;;;;;22.19;67.80;101521.41;5043266;28;20029;-84
2021/06/28 00:27:26;;;;;;;0.05;0.05;;;;;;;22.23;67.58;101522.97;5039362;28;20037;-85
2021/06/28 00:29:53;;;;;;;4.95;1.70;;;;;;;22.21;67.96;101528.47;5043797;28;20488;-85
2021/06/28 00:32:20;;;;;;;0.10;0.10;;;;;;;22.26;67.79;101537.16;5017060;28;20480;-84
2021/06/28 00:34:46;;;;;;;0.60;0.43;;;;;;;22.27;67.43;101522.72;5039198;28;20021;-84
2021/06/28 00:37:13;;;;;;;0.10;0.10;;;;;;;22.25;67.63;101521.06;5046164;28;20112;-84
2021/06/28 00:39:39;;;;;;;0.00;0.00;;;;;;;22.29;67.66;101519.91;5050189;28;20124;-86
2021/06/28 00:42:06;;;;;;;0.10;0.10;;;;;;;22.24;67.74;101517.50;5050272;28;20021;-85
2021/06/28 00:44:33;;;;;;;0.10;0.10;;;;;;;22.27;67.69;101511.06;5047406;28;20084;-84
2021/06/28 00:46:59;;;;;;;0.00;0.00;;;;;;;22.29;67.47;101504.59;5042710;28;20100;-84
2021/06/28 00:49:26;;;;;;;0.10;0.10;;;;;;;22.25;67.72;101504.88;5034187;28;20033;-83
2021/06/28 00:51:56;;;;;;;0.10;0.10;;;;;;;22.23;67.44;101496.88;5049461;28;20472;-83
2021/06/28 00:54:23;;;;;;;0.00;0.00;;;;;;;22.18;67.38;101490.88;5034080;28;20032;-85
2021/06/28 00:56:50;;;;;;;0.85;0.85;;;;;;;22.13;67.27;101483.03;5036302;28;20029;-84
2021/06/28 00:59:18;;;;;;;0.10;0.10;;;;;;;22.10;67.20;101482.34;5034196;28;20026;-84
2021/06/28 01:01:44;;;;;;;0.30;0.30;;;;;;;22.02;67.25;101488.19;5050836;28;20029;-84
2021/06/28 01:04:11;;;;;;;0.10;0.10;;;;;;;21.96;67.26;101488.56;5048859;28;20128;-83
2021/06/28 01:06:38;;;;;;;0.10;0.10;;;;;;;21.91;67.11;101479.84;5040581;28;20032;-85
2021/06/28 01:09:05;;;;;;;0.10;0.10;;;;;;;21.86;67.08;101472.03;5046497;28;20029;-85
2021/06/28 01:11:31;;;;;;;0.05;0.05;;;;;;;21.79;67.33;101476.91;5037839;28;20037;-84
2021/06/28 01:13:59;;;;;;;0.00;0.00;;;;;;;21.76;67.45;101477.06;5050625;28;20029;-85
2021/06/28 01:16:26;;;;;;;0.10;0.10;;;;;;;21.69;67.33;101474.81;5040897;28;20025;-86
2021/06/28 01:18:52;;;;;;;0.10;0.10;;;;;;;;;;5042537;28;20026;-86
2021/06/28 01:21:20;;;;;;;0.10;0.10;;;;;;;21.60;67.26;101471.69;5048753;28;20048;-86
2021/06/28 01:23:47;;;;;;;0.30;0.30;;;;;;;21.58;67.77;101468.22;5042884;28;20039;-85
2021/06/28 01:26:13;;;;;;;0.28;0.28;;;;;;;21.58;67.89;101467.34;5040116;28;20025;-86
2021/06/28 01:28:41;;;;;;;0.28;0.28;;;;;;;21.57;68.10;101470.97;5050892;28;20026;-86
2021/06/28 01:31:09;;;;;;;0.30;0.30;;;;;;;21.58;67.95;101462.81;5041234;28;20455;-83
2021/06/28 01:33:38;;;;;;;0.10;0.10;;;;;;;21.59;68.10;101475.31;5049451;28;20469;-84
2021/06/28 01:36:05;;;;;;;0.10;0.10;;;;;;;21.60;68.09;101481.59;5033754;28;20377;-84
2021/06/28 01:38:32;;;;;;;0.32;0.32;;;;;;;21.61;68.35;101475.25;5042363;28;20025;-85
2021/06/28 01:40:58;;;;;;;0.57;0.35;;;;;;;;;;5042468;28;20461;-85
2021/06/28 01:43:25;;;;;;;0.00;0.00;;;;;;;21.69;67.59;101467.59;5049837;28;20029;-85
2021/06/28 01:45:52;;;;;;;0.32;0.32;;;;;;;21.70;67.62;101476.56;5036891;28;20021;-85
2021/06/28 01:48:20;;;;;;;0.20;0.20;;;;;;;21.72;68.05;101471.94;5035145;28;20033;-85
2021/06/28 01:50:46;;;;;;;0.10;0.10;;;;;;;21.76;68.12;101481.59;5051425;28;20052;-86
2021/06/28 01:53:13;;;;;;;0.88;0.88;;;;;;;21.79;67.83;101476.91;5043648;28;20534;-85
2021/06/28 01:55:41;;;;;;;0.10;0.10;;;;;;;21.79;67.83;101474.22;5036884;28;20026;-85
2021/06/28 01:58:11;;;;;;;0.10;0.10;;;;;;;21.83;68.08;101466.78;5038142;28;20473;-85
2021/06/28 02:00:49;;;;;;;0.10;0.10;;;;;;;21.89;67.90;101462.88;5053269;28;20021;-86
2021/06/28 02:03:18;;;;;;;0.10;0.10;;;;;;;21.89;68.05;101463.75;5039844;28;20064;-84
2021/06/28 02:05:48;;;;;;;0.57;0.17;;;;;;;21.85;68.06;101472.97;5047684;28;20108;-84
2021/06/28 02:08:17;;;;;;;1.52;1.33;;;;;;;21.87;67.98;101480.97;5038731;28;20450;-85
2021/06/28 02:10:48;;;;;;;0.10;0.10;;;;;;;21.89;68.06;101477.22;5044117;28;20037;-85
2021/06/28 02:13:18;;;;;;;4.63;1.53;;;;;;;21.88;68.33;101478.22;5033341;28;20021;-85
2021/06/28 02:15:44;;;;;;;1.27;1.27;;;;;;;21.90;67.77;101489.75;5032547;28;20087;-85
2021/06/28 02:18:11;;;;;;;0.28;0.28;;;;;;;21.89;67.88;101477.22;5038615;28;20021;-83
2021/06/28 02:20:37;;;;;;;0.57;0.57;;;;;;;21.91;67.79;101487.94;5027537;28;20029;-85
2021/06/28 02:23:21;;;;;;;0.52;0.52;;;;;;;21.94;67.73;101494.03;5045681;28;20175;-85
2021/06/28 02:25:50;;;;;;;3.83;1.77;;;;;;;21.90;67.64;101491.59;5051735;28;20055;-85
2021/06/28 02:28:17;;;;;;;0.28;0.28;;;;;;;21.90;67.54;101480.81;5040656;28;20120;-85
2021/06/28 02:30:44;;;;;;;0.80;0.70;;;;;;;21.88;67.56;101491.69;5043521;28;20128;-85
2021/06/28 02:33:10;;;;;;;0.30;0.30;;;;;;;21.88;67.44;101502.50;5052524;28;20040;-85
2021/06/28 02:35:38;;;;;;;0.00;0.00;;;;;;;21.88;67.44;101499.78;5038854;28;20029;-84
2021/06/28 02:38:04;;;;;;;2.17;0.98;;;;;;;21.86;67.52;101509.78;5043366;28;20048;-85
2021/06/28 02:40:32;;;;;;;0.30;0.30;;;;;;;21.83;67.35;101506.38;5049407;28;20033;-86
2021/06/28 02:42:59;;;;;;;1.65;0.63;;;;;;;21.79;67.03;101508.38;5040289;28;20131;-86
2021/06/28 02:45:26;;;;;;;0.20;0.20;;;;;;;21.75;67.15;101504.13;5052424;28;20272;-85
2021/06/28 02:47:52;;;;;;;0.30;0.30;;;;;;;21.71;66.92;101494.47;5023016;28;20038;-84
2021/06/28 02:50:19;;;;;;;0.35;0.35;;;;;;;21.67;66.89;101490.22;5056952;28;20028;-86
2021/06/28 02:52:45;;;;;;;0.10;0.10;;;;;;;21.64;66.62;101489.41;5046832;28;20108;-85
2021/06/28 02:55:12;;;;;;;0.73;0.73;;;;;;;21.59;66.59;101491.50;5049836;28;20032;-86
2021/06/28 02:57:40;;;;;;;0.68;0.68;;;;;;;21.54;66.78;101492.69;5040300;28;20030;-86
2021/06/28 03:00:10;;;;;;;0.03;0.03;;;;;;;21.52;66.72;101500.00;5052148;28;20025;-83
2021/06/28 03:02:37;;;;;;;0.35;0.35;;;;;;;21.46;66.92;101495.84;5045168;28;20025;-86
2021/06/28 03:05:06;;;;;;;0.00;0.00;;;;;;;21.45;66.77;101488.69;5044467;28;20034;-84
2021/06/28 03:07:33;;;;;;;0.25;0.17;;;;;;;21.38;66.73;101487.28;5052446;28;20029;-85
2021/06/28 03:10:00;;;;;;;0.55;0.55;;;;;;;21.34;66.81;101487.44;5039388;28;20120;-86
2021/06/28 03:12:26;;;;;;;0.10;0.10;;;;;;;21.28;67.18;101486.94;5049538;28;20104;-85
2021/06/28 03:14:53;;;;;;;0.10;0.10;;;;;;;21.24;67.20;101475.44;5047354;28;20040;-85
2021/06/28 03:17:19;;;;;;;0.20;0.20;;;;;;;21.22;66.95;101482.75;5041901;28;20504;-85
2021/06/28 03:19:45;;;;;;;0.28;0.28;;;;;;;21.18;67.13;101481.16;5052780;28;20138;-84
2021/06/28 03:22:13;;;;;;;1.35;0.65;;;;;;;21.16;66.83;101477.69;5041036;28;20026;-84
2021/06/28 03:24:39;;;;;;;0.00;0.00;;;;;;;21.14;67.08;101485.00;5046854;28;20030;-85
2021/06/28 03:27:06;;;;;;;0.32;0.32;;;;;;;21.10;67.12;101467.25;5048825;28;20025;-85
2021/06/28 03:29:32;;;;;;;0.10;0.10;;;;;;;21.09;67.29;101471.75;5039990;28;20503;-84
2021/06/28 03:31:59;;;;;;;0.10;0.10;;;;;;;21.08;67.03;101474.53;5034826;28;20034;-84
2021/06/28 03:34:25;;;;;;;2.45;0.43;;;;;;;21.06;67.09;101482.72;5042963;28;20036;-84
2021/06/28 03:36:52;;;;;;;0.10;0.10;;;;;;;21.04;67.18;101486.44;5027231;28;20021;-85
2021/06/28 03:39:18;;;;;;;0.10;0.10;;;;;;;21.04;66.98;101489.16;5049535;28;20035;-85
2021/06/28 03:41:44;;;;;;;0.28;0.28;;;;;;;20.99;67.04;101484.84;5021226;28;20040;-86
2021/06/28 03:44:11;;;;;;;0.10;0.10;;;;;;;20.98;67.09;101482.25;5051086;28;20025;-84
2021/06/28 03:46:37;;;;;;;0.05;0.05;;;;;;;20.96;67.25;101487.72;5044069;28;20067;-85
2021/06/28 03:49:04;;;;;;;0.70;0.52;;;;;;;20.96;67.26;101486.84;5037485;28;20037;-86
2021/06/28 03:51:31;;;;;;;0.10;0.10;;;;;;;20.94;67.24;101489.63;5054937;28;20033;-85
2021/06/28 03:53:57;;;;;;;0.20;0.20;;;;;;;20.94;67.41;101483.38;5038556;28;20460;-83
2021/06/28 03:56:23;;;;;;;0.85;0.85;;;;;;;20.94;67.21;101484.22;5048904;28;20022;-85
2021/06/28 03:58:49;;;;;;;0.22;0.22;;;;;;;20.94;67.23;101478.84;5045262;28;20029;-84
2021/06/28 04:01:16;;;;;;;0.30;0.30;;;;;;;20.94;67.33;101478.84;5040922;28;20040;-83
2021/06/28 04:03:42;;;;;;;0.10;0.10;;;;;;;20.94;67.42;101478.84;5051899;28;20029;-85
2021/06/28 04:06:09;;;;;;;0.68;0.68;;;;;;;20.95;67.30;101483.28;5039622;28;20021;-83
2021/06/28 04:08:38;;;;;;;0.00;0.00;;;;;;;20.96;67.41;101482.34;5047011;28;20026;-83
2021/06/28 04:11:07;;;;;;;0.00;0.00;;;;;;;20.97;67.43;101478.69;5048354;28;20029;-85
2021/06/28 04:13:33;;;;;;;0.43;0.43;;;;;;;20.95;67.72;101480.59;5039346;28;20029;-85
2021/06/28 04:16:00;;;;;;;0.43;0.40;;;;;;;20.98;67.57;101485.81;5052091;28;20029;-84
2021/06/28 04:18:26;;;;;;;0.47;0.47;;;;;;;20.99;67.62;101484.00;5042668;28;20033;-86
2021/06/28 04:20:52;;;;;;;0.10;0.10;;;;;;;21.00;67.62;101488.44;5043822;28;20061;-85
2021/06/28 04:23:19;;;;;;;0.10;0.10;;;;;;;21.01;67.64;101485.66;5049299;28;20079;-84
2021/06/28 04:25:46;;;;;;;0.10;0.10;;;;;;;21.03;67.78;101492.78;5038051;28;20103;-84
2021/06/28 04:28:13;;;;;;;0.00;0.00;;;;;;;21.03;67.64;101487.41;5041674;28;20091;-84
2021/06/28 04:30:39;;;;;;;0.20;0.20;;;;;;;21.06;67.77;101492.59;5045462;28;20400;-85
2021/06/28 04:33:06;;;;;;;0.30;0.30;;;;;;;21.06;67.71;101482.72;5047165;28;20646;-85
2021/06/28 04:35:32;;;;;;;0.05;0.05;;;;;;;21.07;67.63;101487.16;5038410;28;20025;-85
2021/06/28 04:38:00;;;;;;;0.10;0.10;;;;;;;21.05;68.00;101489.06;5050813;28;20034;-85
2021/06/28 04:40:29;;;;;;;0.17;0.17;;;;;;;21.09;67.92;101487.06;5041656;28;20025;-85
2021/06/28 04:42:56;;;;;;;0.50;0.50;;;;;;;21.09;68.32;101487.06;5044048;28;20068;-84
2021/06/28 04:45:24;;;;;;;0.38;0.38;;;;;;;21.16;68.07;101488.47;5049878;28;20051;-85
2021/06/28 04:47:50;;;;;;;0.10;0.10;;;;;;;21.17;68.71;101490.19;5037741;28;20041;-85
2021/06/28 04:50:22;;;;;;;0.45;0.45;;;;;;;21.24;68.34;101482.66;5049037;28;20469;-86
2021/06/28 04:52:50;;;;;;;;;;;;;;;21.41;67.86;101481.72;5039579;28;20025;-85
2021/06/28 04:55:17;;;;;;;0.22;0.15;;;;;;;21.33;68.35;101490.22;5040151;28;20269;-85
2021/06/28 04:57:45;;;;;;;0.10;0.10;;;;;;;21.41;67.91;101488.00;5050916;28;20028;-86
2021/06/28 05:00:14;;;;;;;0.30;0.30;;;;;;;21.48;68.26;101477.72;5039132;28;20075;-84
2021/06/28 05:02:40;;;;;;;0.10;0.10;;;;;;;21.50;68.47;101470.44;5045113;28;20106;-85
2021/06/28 05:05:07;;;;;;;0.60;0.50;;;;;;;21.53;68.29;101481.03;5046825;28;20017;-85
2021/06/28 05:07:34;;;;;;;0.43;0.43;;;;;;;21.59;67.69;101472.63;5037610;28;20037;-84
2021/06/28 05:10:00;;;;;;;0.20;0.20;;;;;;;21.59;67.88;101478.03;5033685;28;20439;-84
2021/06/28 05:12:26;;;;;;;0.88;0.57;;;;;;;21.64;68.15;101486.72;5034280;28;20036;-85
2021/06/28 05:14:53;;;;;;;0.10;0.10;;;;;;;21.68;68.33;101489.25;5034222;28;20038;-89
2021/06/28 05:17:19;;;;;;;0.10;0.10;;;;;;;21.72;68.18;101498.91;5052734;28;20567;-84
2021/06/28 05:19:47;;;;;;;0.10;0.10;;;;;;;21.70;68.66;101492.75;5053775;28;20037;-85
2021/06/28 05:22:14;;;;;;;0.43;0.43;;;;;;;21.76;68.18;101495.09;5043236;28;20037;-85
2021/06/28 05:24:40;;;;;;;0.20;0.20;;;;;;;21.79;68.27;101501.19;5041828;28;20033;-85
2021/06/28 05:27:06;;;;;;;0.20;0.20;;;;;;;21.78;68.13;101496.75;5042800;28;20029;-85
2021/06/28 05:29:32;;;;;;;0.93;0.60;;;;;;;21.79;67.96;101492.22;5044101;28;20075;-85
2021/06/28 05:31:59;;;;;;;0.10;0.10;;;;;;;21.86;67.79;101493.59;5041777;28;20038;-84
2021/06/28 05:34:25;;;;;;;0.98;0.63;;;;;;;21.89;67.77;101488.00;5028462;28;20029;-85
2021/06/28 05:36:51;;;;;;;4.68;1.20;;;;;;;21.95;67.67;101482.28;5037959;28;20113;-83
2021/06/28 05:39:18;;;;;;;0.05;0.05;;;;;;;21.98;67.69;101478.53;5040095;28;20064;-81
2021/06/28 05:41:44;;;;;;;0.43;0.43;;;;;;;21.97;67.79;101474.97;5044751;28;20038;-85
2021/06/28 05:44:10;;;;;;;0.30;0.30;;;;;;;22.03;67.66;101472.88;5045363;28;20037;-83
2021/06/28 05:46:36;;;;;;;0.20;0.20;;;;;;;22.08;67.25;101476.16;5020955;28;20029;-84
2021/06/28 05:49:03;;;;;;;0.43;0.43;;;;;;;22.08;67.66;101471.66;5040573;28;20109;-84
2021/06/28 05:51:29;;;;;;;1.35;0.80;;;;;;;22.06;67.46;101468.16;5033163;28;21767;-86
2021/06/28 05:53:55;;;;;;;0.17;0.17;;;;;;;22.14;67.23;101467.69;5047280;28;20032;-84
2021/06/28 05:56:21;;;;;;;0.28;0.28;;;;;;;22.19;67.24;101468.28;5040295;28;20026;-80
2021/06/28 05:58:49;;;;;;;1.55;0.57;;;;;;;22.20;67.78;101464.63;5026366;28;20186;-85
2021/06/28 06:01:16;;;;;;;0.10;0.10;;;;;;;22.17;68.15;101459.44;5038502;28;20502;-80
2021/06/28 06:03:43;;;;;;;0.52;0.52;;;;;;;22.33;67.24;101463.91;5040189;28;20075;-87
2021/06/28 06:06:09;;;;;;;0.40;0.40;;;;;;;22.40;67.25;101459.91;5038148;28;20037;-85
2021/06/28 06:08:35;;;;;;;0.20;0.20;;;;;;;22.52;67.10;101448.38;5041544;28;20052;-86
2021/06/28 06:11:03;;;;;;;0.10;0.10;;;;;;;22.65;66.95;101455.72;5042965;28;20365;-85
2021/06/28 06:13:29;;;;;;;0.55;0.55;;;;;;;22.70;67.25;101442.81;5047774;28;20025;-85
2021/06/28 06:15:58;;;;;;;0.30;0.30;;;;;;;22.82;66.54;101439.34;5046407;28;20029;-86
2021/06/28 06:18:24;;;;;;;1.08;1.08;;;;;;;22.89;66.76;101435.31;5024947;28;20026;-86
2021/06/28 06:20:52;;;;;;;0.10;0.10;;;;;;;23.01;66.24;101446.31;5045789;28;20061;-85
2021/06/28 06:23:18;;;;;;;1.35;1.27;;;;;;;23.16;66.58;101448.06;5048205;28;20494;-85
2021/06/28 06:25:46;;;;;;;0.35;0.35;;;;;;;23.30;65.81;101438.19;5046926;28;20032;-87
2021/06/28 06:28:13;;;;;;;1.05;1.05;;;;;;;23.38;65.49;101441.28;5045248;28;20512;-85
2021/06/28 06:30:40;;;;;;;0.20;0.20;;;;;;;23.57;65.69;101438.22;5056803;28;20427;-87
2021/06/28 06:33:09;;;;;;;0.98;0.98;;;;;;;23.65;65.19;101443.13;5057523;28;20025;-88
2021/06/28 06:35:35;;;;;;;1.02;0.73;;;;;;;23.75;63.97;101433.44;5053490;28;20044;-88
2021/06/28 06:38:01;;;;;;;0.30;0.30;;;;;;;23.77;65.13;101433.34;5048105;28;20400;-88
2021/06/28 06:40:29;;;;;;;1.05;1.05;;;;;;;23.84;64.29;101435.53;5045151;28;20021;-86
2021/06/28 06:42:56;;;;;;;0.10;0.10;;;;;;;23.93;63.50;101438.66;5046993;28;20109;-88
2021/06/28 06:45:24;;;;;;;1.23;1.13;;;;;;;23.93;63.64;101435.94;5027661;28;20435;-88
2021/06/28 06:47:50;;;;;;;0.57;0.57;;;;;;;23.94;64.47;101437.66;5043922;28;20509;-87
2021/06/28 06:50:17;;;;;;;3.75;1.48;;;;;;;24.00;63.99;101437.22;5041936;28;20038;-87
2021/06/28 06:52:46;;;;;;;0.50;0.50;;;;;;;24.02;63.40;101435.31;5036776;28;20036;-88
2021/06/28 06:55:13;;;;;;;0.30;0.30;;;;;;;24.15;64.11;101428.09;5036846;28;20034;-87
2021/06/28 06:57:40;;;;;;;0.30;0.30;;;;;;;24.21;63.54;101429.50;5042245;28;20100;-86
2021/06/28 07:00:09;;;;;;;0.20;0.20;;;;;;;24.32;63.29;101418.78;5047582;28;20544;-87
2021/06/28 07:02:36;;;;;;;1.30;0.50;;;;;;;24.37;63.17;101418.47;5036992;28;20432;-88
2021/06/28 07:05:03;;;;;;;1.45;1.02;;;;;;;24.43;63.65;101423.47;5037342;28;20038;-86
2021/06/28 07:07:29;;;;;;;1.05;0.98;;;;;;;24.45;63.47;101426.94;5018752;28;20592;-82
2021/06/28 07:09:55;;;;;;;1.27;1.17;;;;;;;24.46;63.08;101434.09;5040201;28;20048;-86
2021/06/28 07:12:21;;;;;;;0.32;0.32;;;;;;;24.53;63.12;101443.50;5037923;28;20037;-87
2021/06/28 07:14:47;;;;;;;0.63;0.63;;;;;;;24.53;63.50;101443.50;5038658;28;20499;-87
2021/06/28 07:17:13;;;;;;;0.60;0.60;;;;;;;24.55;63.34;101444.28;5056839;28;20041;-87
2021/06/28 07:19:39;;;;;;;0.25;0.25;;;;;;;24.55;62.57;101448.84;5055860;28;20123;-88
2021/06/28 07:22:06;;;;;;;0.20;0.20;;;;;;;24.59;63.03;101446.78;5056623;28;20529;-87
2021/06/28 07:24:32;;;;;;;1.38;1.15;;;;;;;24.45;61.74;101439.59;5056192;28;20125;-89
2021/06/28 07:26:59;;;;;;;1.05;0.98;;;;;;;24.61;62.50;101444.81;5038221;28;20116;-87
2021/06/28 07:29:25;;;;;;;2.53;1.65;;;;;;;24.51;62.47;101437.34;5056776;28;20058;-87
2021/06/28 07:31:51;;;;;;;0.20;0.20;;;;;;;24.58;62.42;101447.75;5056132;28;20025;-87
2021/06/28 07:34:18;;;;;;;0.28;0.28;;;;;;;24.42;62.26;101440.69;5056805;28;20495;-85
2021/06/28 07:36:44;;;;;;;1.80;1.30;;;;;;;24.50;61.94;101446.44;5058459;28;20033;-87
2021/06/28 07:39:11;;;;;;;0.22;0.22;;;;;;;24.52;61.81;101438.22;5058272;28;20029;-88
2021/06/28 07:41:37;;;;;;;0.85;0.85;;;;;;;24.59;62.02;101438.66;5038632;28;20037;-87
2021/06/28 07:44:06;;;;;;;0.20;0.20;;;;;;;24.61;61.96;101447.53;5049478;28;20039;-87
2021/06/28 07:46:33;;;;;;;0.08;0.08;;;;;;;24.69;62.07;101447.91;5044242;28;20517;-87
2021/06/28 07:48:59;;;;;;;0.35;0.35;;;;;;;24.68;61.47;101443.47;5043801;22;20034;-86
2021/06/28 07:51:25;;;;;;;0.30;0.30;;;;;;;24.71;61.41;101443.22;5066104;28;20123;-91
2021/06/28 07:53:51;;;;;;;0.63;0.63;;;;;;;24.72;61.77;101453.09;5049931;28;20029;-92
2021/06/28 07:56:18;;;;;;;1.55;1.50;;;;;;;24.83;61.57;101453.19;5067616;28;20052;-90
2021/06/28 07:58:46;;;;;;;1.75;0.88;;;;;;;24.84;61.59;101460.34;5073002;28;20096;-86
2021/06/28 08:01:13;;;;;;;1.30;1.23;;;;;;;24.90;61.86;101463.59;5050195;28;20120;-90
2021/06/28 08:03:44;;;;;;;0.35;0.35;;;;;;;25.00;61.39;101453.88;5047739;28;20088;-92
2021/06/28 08:06:12;;;;;;;0.40;0.40;;;;;;;25.09;62.00;101463.19;5045534;28;20032;-92
2021/06/28 08:08:38;;;;;;;1.17;0.32;;;;;;;25.09;62.79;101461.31;5045721;28;20082;-92
2021/06/28 08:11:07;;;;;;;0.25;0.25;;;;;;;25.15;61.73;101455.47;5047243;28;20421;-89
2021/06/28 08:13:35;;;;;;;0.70;0.70;;;;;;;25.21;61.25;101459.59;5044112;28;20072;-87
2021/06/28 08:16:05;;;;;;;0.30;0.30;;;;;;;25.21;60.78;101462.28;5056257;28;20534;-83
2021/06/28 08:18:34;;;;;;;0.10;0.10;;;;;;;25.34;61.28;101462.25;5059384;28;20036;-88
2021/06/28 08:21:02;;;;;;;0.63;0.63;;;;;;;25.42;61.04;101462.59;5055030;28;20037;-87
2021/06/28 08:23:30;;;;;;;0.22;0.22;;;;;;;25.49;61.36;101463.88;5052835;28;20025;-90
2021/06/28 08:25:57;;;;;;;0.10;0.10;;;;;;;25.55;61.82;101470.69;5043769;28;20044;-84
2021/06/28 08:28:24;;;;;;;0.17;0.17;;;;;;;25.81;60.92;101476.91;5042749;28;20040;-89
2021/06/28 08:30:50;;;;;;;0.10;0.10;;;;;;;25.91;60.70;101473.50;5041457;28;20032;-92
2021/06/28 08:33:16;;;;;;;5.15;1.60;;;;;;;25.91;59.84;101476.22;5053024;28;20033;-89
2021/06/28 08:35:42;;;;;;;0.30;0.30;;;;;;;25.94;59.32;101474.13;5040344;28;20022;-91
2021/06/28 08:38:10;;;;;;;0.17;0.17;;;;;;;26.02;59.78;101473.56;5043750;28;20025;-90
2021/06/28 08:40:37;;;;;;;1.23;1.17;;;;;;;26.19;60.20;101469.56;5026262;28;20488;-90
2021/06/28 08:43:05;;;;;;;0.22;0.22;;;;;;;26.22;59.75;101469.34;5042639;28;20029;-92
2021/06/28 08:45:38;;;;;;;0.20;0.20;;;;;;;26.35;59.44;101462.97;5044818;28;20032;-90
2021/06/28 08:48:07;;;;;;;;;;;;;;;26.44;59.15;101467.69;5042722;28;20025;-89
2021/06/28 08:50:36;;;;;;;1.15;1.15;;;;;;;26.53;58.71;101464.28;5040384;28;19917;-90
2021/06/28 08:53:04;;;;;;;0.75;0.75;;;;;;;26.62;58.22;101466.25;5042830;28;20464;-91
2021/06/28 08:55:31;;;;;;;0.10;0.10;;;;;;;26.79;58.19;101467.69;5041136;28;20079;-90
2021/06/28 08:57:57;;;;;;;0.25;0.25;;;;;;;26.98;56.94;101470.78;5042739;28;20033;-90
2021/06/28 09:00:23;;;;;;;0.95;0.52;;;;;;;27.18;58.07;101466.44;5042452;28;20049;-87
2021/06/28 09:03:00;;;;;;;0.60;0.60;;;;;;;27.22;56.18;101467.94;5032977;28;20026;-84
2021/06/28 09:05:27;;;;;;;0.28;0.28;;;;;;;27.39;57.00;101470.16;5034126;28;20036;-87
2021/06/28 09:08:11;;;;;;;0.82;0.82;;;;;;;27.46;56.42;101469.69;5036162;28;20108;-84
2021/06/28 09:10:40;;;;;;;0.55;0.55;;;;;;;27.48;55.08;101473.13;5042412;28;20117;-87
2021/06/28 09:13:07;;;;;;;0.50;0.50;;;;;;;27.57;56.78;101466.94;5042410;28;20049;-87
2021/06/28 09:15:37;;;;;;;0.22;0.22;;;;;;;27.76;55.82;101469.00;5043794;28;20017;-87
2021/06/28 09:18:21;;;;;;;0.73;0.73;;;;;;;27.86;53.07;101471.81;5048971;28;20381;-89
2021/06/28 09:20:50;;;;;;;0.35;0.35;;;;;;;27.72;55.71;101476.56;5073832;22;20044;-90
2021/06/28 09:26:00;;;;;;;0.35;0.35;;;;;;;27.80;55.68;101477.78;5080726;28;20469;-89
2021/06/28 09:28:37;;;;;;;0.10;0.10;;;;;;;27.76;54.47;101478.03;5071962;28;20483;-89
2021/06/28 09:31:06;;;;;;;1.20;0.38;;;;;;;27.71;55.83;101474.81;5050470;28;20033;-89
2021/06/28 09:33:33;;;;;;;0.00;0.00;;;;;;;27.69;55.99;101474.09;5064250;28;20045;-89
2021/06/28 09:35:59;;;;;;;0.20;0.20;;;;;;;27.66;56.03;101482.50;5059946;28;20485;-87
2021/06/28 09:41:33;;;;;;;0.30;0.30;;;;;;;27.61;56.48;101471.13;5071465;27;20588;-89
2021/06/28 09:44:03;;;;;;;0.25;0.25;;;;;;;27.49;55.82;101459.41;5069299;28;20438;-90
2021/06/28 09:46:29;;;;;;;0.10;0.10;;;;;;;27.44;56.05;101467.97;5071284;28;20025;-89
2021/06/28 09:48:56;;;;;;;0.28;0.28;;;;;;;27.40;56.23;101479.22;5068031;28;20040;-89
2021/06/28 09:54:23;;;;;;;0.47;0.47;;;;;;;27.33;57.15;101488.81;5057392;28;20416;-81
2021/06/28 09:56:52;;;;;;;0.38;0.38;;;;;;;27.33;57.60;101503.31;5062262;28;20040;-88
2021/06/28 10:02:25;;;;;;;0.20;0.20;;;;;;;27.31;57.38;101499.84;5065852;28;20490;-88
2021/06/28 10:07:59;;;;;;;1.95;0.43;;;;;;;27.19;57.79;101495.38;5056536;28;20403;-90
2021/06/28 10:10:28;;;;;;;0.13;0.13;;;;;;;27.08;56.58;101491.69;5046217;28;20389;-88
2021/06/28 10:16:04;;;;;;;0.57;0.57;;;;;;;26.96;58.28;101489.94;5058101;28;20398;-89
2021/06/28 10:18:31;;;;;;;0.50;0.50;;;;;;;26.85;57.42;101485.34;5048720;28;20037;-86
2021/06/28 10:20:57;;;;;;;0.10;0.10;;;;;;;26.87;57.75;101490.69;5047767;28;20025;-88
2021/06/28 10:23:23;;;;;;;0.13;0.13;;;;;;;26.86;57.83;101488.94;5049483;28;20235;-87
2021/06/28 10:25:49;;;;;;;0.75;0.75;;;;;;;26.83;58.06;101489.19;5045925;28;20033;-89
2021/06/28 10:28:16;;;;;;;0.55;0.55;;;;;;;26.74;58.28;101493.50;5049011;28;20071;-86
2021/06/28 10:30:42;;;;;;;0.45;0.45;;;;;;;26.75;58.74;101493.34;5049757;28;20025;-87
2021/06/28 10:33:12;;;;;;;0.15;0.15;;;;;;;26.73;58.31;101497.16;5049600;28;20035;-89
2021/06/28 10:35:41;;;;;;;4.75;0.65;;;;;;;26.70;59.57;101506.41;5051097;28;20031;-89
2021/06/28 10:38:11;;;;;;;0.10;0.10;;;;;;;26.62;58.04;101496.16;5051552;28;20061;-87
2021/06/28 10:40:58;;;;;;;0.10;0.10;;;;;;;26.66;59.12;101498.66;5050786;28;20082;-89
2021/06/28 10:46:07;;;;;;;0.35;0.35;;;;;;;26.66;58.60;101499.50;5063648;27;20454;-90
2021/06/28 10:48:46;;;;;;;0.08;0.08;;;;;;;26.70;57.57;101506.41;5051988;28;20064;-85
2021/06/28 10:51:18;;;;;;;0.20;0.20;;;;;;;26.69;57.67;101503.81;5043577;28;20025;-90
2021/06/28 11:04:55;;;;;;;3.60;0.55;;;;;;;27.02;55.83;101480.44;5079646;27;20498;-88
2021/06/28 11:07:24;;;;;;;0.20;0.20;;;;;;;27.04;55.39;101482.06;5064864;28;20029;-88
2021/06/28 11:12:38;;;;;;;1.02;0.80;;;;;;;27.19;57.03;101479.06;5077883;28;20443;-88
2021/06/28 11:15:08;;;;;;;0.35;0.35;;;;;;;27.24;56.14;101471.38;5060393;28;20365;-86
2021/06/28 11:26:00;;;;;;;0.13;0.13;;;;;;;27.30;56.83;101479.06;5091189;27;20414;-87
2021/06/28 11:28:39;;;;;;;0.80;0.70;;;;;;;27.22;57.46;101473.41;5071188;28;20037;-86
2021/06/28 11:31:10;;;;;;;0.63;0.63;;;;;;;27.25;57.35;101473.13;5053067;28;20120;-86
2021/06/28 11:39:26;;;;;;;0.30;0.30;;;;;;;27.30;57.69;101470.91;5111560;27;20392;-85
2021/06/28 11:42:17;;;;;;;0.10;0.10;;;;;;;27.34;57.56;101466.06;5111682;28;20043;-85
2021/06/28 11:44:52;;;;;;;0.40;0.40;;;;;;;27.42;57.33;101467.22;5112284;28;20475;-87
2021/06/28 11:47:38;;;;;;;0.10;0.10;;;;;;;27.53;56.98;101466.34;5111514;28;20382;-86
2021/06/28 11:50:26;;;;;;;0.20;0.20;;;;;;;27.84;56.28;101465.63;5111768;28;20028;-87
2021/06/28 11:52:58;;;;;;;0.30;0.30;;;;;;;27.96;55.80;101461.03;5111628;28;20031;-86
2021/06/28 11:55:24;;;;;;;0.65;0.65;;;;;;;28.02;55.67;101460.50;5110050;28;20028;-87
2021/06/28 11:57:52;;;;;;;0.52;0.52;;;;;;;28.05;54.61;101469.31;5110141;28;20028;-87
2021/06/28 12:00:21;;;;;;;0.70;0.70;;;;;;;28.09;54.47;101472.66;5111331;28;20028;-88
2021/06/28 12:02:47;;;;;;;0.57;0.57;;;;;;;28.04;53.73;101470.31;5111609;28;20406;-86
2021/06/28 12:05:23;;;;;;;0.28;0.28;;;;;;;28.04;54.66;101470.31;5111030;28;20122;-86
2021/06/28 12:07:52;;;;;;;0.63;0.52;;;;;;;28.03;53.82;101462.22;5111405;28;20035;-87
2021/06/28 12:10:20;;;;;;;4.90;0.50;;;;;;;28.02;54.89;101472.25;5110025;28;20079;-87
2021/06/28 12:12:56;;;;;;;0.10;0.10;;;;;;;28.04;54.75;101481.19;5111446;28;20020;-86
2021/06/28 12:15:28;;;;;;;0.80;0.80;;;;;;;28.01;54.28;101473.25;5109568;28;20039;-87
2021/06/28 12:17:54;;;;;;;1.50;1.40;;;;;;;27.94;55.26;101472.06;5110729;28;20036;-87